Bernice, Louisiana
Current Conditions -  °F | °C
As of 12:35 AM on Saturday 20 Dec 2014 (Local Time) from KRSN Reporting Station
Overcast Overcast  
Wind Chill: 45°   Ceiling: 600
Heat Index: 45°   Visibility: 7mi
Dew Point: 45°   Wind: 3mph
Humidity: 100%   Direction: 50°NE
Pressure: 30.23"   Gusts: NA
Location:  32.82°N, 92.66°W
Report Text: KRSN 200635Z AUTO 05003KT 7SM OVC006 07/07 A3023 RMK AO2 T00710071
Loading
Personal Weather Stations






























Interactive Weather Map New forecast layout! Learn more

10-Day Weather Forecast

Advertisements
Track Severe Weather on mobile